Fosters, Alabama
Current Conditions -  °F | °C
As of 9:53 PM on Wednesday 17 Dec 2014 (Local Time) from KTCL Reporting Station
Clear Clear  
Wind Chill: 41°   Ceiling: Unl
Heat Index: 41°   Visibility: 10mi
Dew Point: 37°   Wind: 3mph
Humidity: 86%   Direction: 10°N
Pressure: 30.23"   Gusts: NA
Location:  33.09°N, 87.69°W
Report Text: KTCL 180353Z AUTO 01003KT 10SM CLR 05/03 A3023 RMK AO2 SLP237 T00500028
Loading
Personal Weather Stations






























Interactive Weather Map New forecast layout! Learn more

10-Day Weather Forecast

Advertisements
Track Severe Weather on mobile